createdAt,value
2022-09-26T00:01:15.749Z,13.60
2022-09-26T00:03:47.492Z,14.00
2022-09-26T00:06:16.164Z,13.38
2022-09-26T00:08:42.872Z,12.02
2022-09-26T00:11:12.949Z,16.23
2022-09-26T00:13:41.663Z,14.20
2022-09-26T00:16:10.969Z,13.13
2022-09-26T00:21:04.740Z,14.43
2022-09-26T00:23:31.641Z,13.80
2022-09-26T00:25:58.921Z,14.98
2022-09-26T00:28:26.048Z,14.95
2022-09-26T00:30:53.079Z,15.15
2022-09-26T00:33:19.878Z,15.32
2022-09-26T00:35:57.455Z,15.98
2022-09-26T00:38:24.487Z,15.65
2022-09-26T00:40:51.307Z,14.27
2022-09-26T00:43:33.175Z,17.17
2022-09-26T00:46:06.092Z,16.20
2022-09-26T00:48:36.091Z,13.68
2022-09-26T00:51:04.366Z,18.55
2022-09-26T00:53:38.215Z,14.80
2022-09-26T00:56:10.941Z,17.85
2022-09-26T00:58:53.627Z,14.60
2022-09-26T01:01:21.208Z,18.27
2022-09-26T01:03:50.355Z,16.92
2022-09-26T01:06:18.885Z,16.20
2022-09-26T01:08:52.558Z,17.65
2022-09-26T01:11:19.978Z,17.45
2022-09-26T01:13:48.068Z,16.15
2022-09-26T01:16:14.906Z,14.50
2022-09-26T01:18:42.659Z,16.30
2022-09-26T01:21:15.066Z,17.10
2022-09-26T01:24:26.902Z,16.35
2022-09-26T01:27:19.725Z,15.00
2022-09-26T01:30:03.576Z,15.98
2022-09-26T01:32:48.752Z,16.83
2022-09-26T01:35:59.280Z,15.40
2022-09-26T01:38:48.116Z,15.75
2022-09-26T01:41:34.082Z,15.93
2022-09-26T01:44:25.309Z,16.30
2022-09-26T01:47:00.965Z,16.10
2022-09-26T01:49:46.050Z,16.83
2022-09-26T01:52:50.298Z,17.80
2022-09-26T01:55:32.394Z,16.15
2022-09-26T01:58:10.089Z,15.57
2022-09-26T02:00:39.900Z,16.55
2022-09-26T02:03:12.433Z,19.60
2022-09-26T02:05:48.618Z,19.15
2022-09-26T02:08:30.838Z,18.70
2022-09-26T02:11:06.254Z,15.15
2022-09-26T02:13:47.647Z,17.45
2022-09-26T02:16:21.490Z,16.73
2022-09-26T02:18:53.515Z,19.75
2022-09-26T02:21:22.928Z,19.40
2022-09-26T02:23:52.012Z,19.08
2022-09-26T02:26:19.318Z,16.63
2022-09-26T02:28:47.083Z,17.58
2022-09-26T02:31:22.111Z,16.70
2022-09-26T02:33:51.149Z,19.35
2022-09-26T02:36:20.134Z,18.90
2022-09-26T02:38:47.007Z,17.52
2022-09-26T02:41:45.816Z,19.20
2022-09-26T02:44:39.766Z,18.75
2022-09-26T02:47:38.208Z,18.65
2022-09-26T02:50:21.163Z,15.85
2022-09-26T02:53:06.447Z,16.80
2022-09-26T02:55:58.887Z,17.30
2022-09-26T02:58:36.031Z,15.85
2022-09-26T03:01:15.034Z,16.50
2022-09-26T03:03:53.747Z,17.15
2022-09-26T03:06:27.323Z,17.98
2022-09-26T03:08:56.198Z,18.95
2022-09-26T03:11:25.910Z,15.52
2022-09-26T03:13:55.847Z,18.33
2022-09-26T03:16:27.160Z,17.73
2022-09-26T03:19:04.450Z,17.58
2022-09-26T03:21:36.127Z,17.95
2022-09-26T03:24:04.492Z,19.48
2022-09-26T03:26:33.286Z,15.18
2022-09-26T03:29:02.447Z,17.70
2022-09-26T03:31:31.714Z,18.00
2022-09-26T03:34:00.894Z,16.73
2022-09-26T03:36:28.753Z,15.77
2022-09-26T03:38:55.814Z,18.40
2022-09-26T03:41:38.403Z,14.98
2022-09-26T03:44:17.990Z,16.88
2022-09-26T03:47:05.363Z,16.83
2022-09-26T03:49:38.966Z,18.40
2022-09-26T03:52:07.490Z,16.77
2022-09-26T03:54:34.191Z,16.92
2022-09-26T03:57:00.930Z,18.80
2022-09-26T03:59:27.714Z,17.92
2022-09-26T04:01:54.816Z,18.27
2022-09-26T04:04:21.965Z,19.05
2022-09-26T04:06:51.227Z,18.25
2022-09-26T04:09:18.605Z,20.90
2022-09-26T04:11:49.165Z,17.00
2022-09-26T04:14:17.452Z,20.30
2022-09-26T04:16:48.048Z,18.23
2022-09-26T04:19:28.444Z,16.90
2022-09-26T04:21:55.360Z,20.77
2022-09-26T04:24:22.114Z,17.02
2022-09-26T04:26:48.945Z,17.38
2022-09-26T04:29:16.910Z,19.58
2022-09-26T04:32:04.019Z,15.30
2022-09-26T04:34:40.757Z,17.98
2022-09-26T04:37:10.268Z,18.40
2022-09-26T04:39:37.023Z,17.90
2022-09-26T04:42:04.828Z,17.27
2022-09-26T04:44:32.771Z,16.90
2022-09-26T04:46:59.539Z,18.35
2022-09-26T04:49:42.074Z,20.13
2022-09-26T04:52:08.809Z,20.55
2022-09-26T04:54:37.453Z,17.77
2022-09-26T04:57:04.806Z,17.25
2022-09-26T04:59:31.716Z,17.88
2022-09-26T05:02:08.495Z,20.05
2022-09-26T05:04:42.748Z,15.95
2022-09-26T05:07:09.511Z,18.95
2022-09-26T05:09:37.288Z,18.50
2022-09-26T05:12:12.857Z,17.92
2022-09-26T05:14:44.384Z,15.80
2022-09-26T05:17:11.789Z,18.02
2022-09-26T05:19:39.493Z,15.32
2022-09-26T05:22:23.740Z,15.57
2022-09-26T05:25:09.192Z,16.33
2022-09-26T05:27:37.105Z,14.40
2022-09-26T05:30:04.130Z,15.50
2022-09-26T05:32:30.825Z,16.45
2022-09-26T05:34:58.089Z,18.23
2022-09-26T05:37:27.985Z,13.15
2022-09-26T05:40:13.562Z,13.73
2022-09-26T05:42:45.838Z,13.35
2022-09-26T05:45:15.119Z,15.35
2022-09-26T05:47:42.665Z,11.77
2022-09-26T05:50:10.255Z,13.50
2022-09-26T05:52:39.324Z,12.15
2022-09-26T05:55:07.540Z,11.68
2022-09-26T05:58:07.702Z,10.85
2022-09-26T06:00:53.243Z,12.80
2022-09-26T06:03:21.044Z,11.93
2022-09-26T06:06:10.771Z,11.70
2022-09-26T06:08:38.671Z,9.60
2022-09-26T06:11:31.384Z,10.13
2022-09-26T06:14:00.913Z,9.55
2022-09-26T06:16:28.918Z,10.20
2022-09-26T06:18:56.072Z,8.45
2022-09-26T06:21:23.562Z,8.93
2022-09-26T06:23:54.359Z,8.10
2022-09-26T06:26:24.276Z,7.47
2022-09-26T06:29:00.338Z,9.70
2022-09-26T06:31:30.296Z,11.45
2022-09-26T06:34:09.719Z,7.22
2022-09-26T06:36:47.029Z,8.18
2022-09-26T06:39:14.894Z,7.70
2022-09-26T06:41:42.073Z,9.90
2022-09-26T06:44:23.893Z,8.88
2022-09-26T06:47:09.072Z,9.27
2022-09-26T06:49:38.603Z,9.02
2022-09-26T06:52:21.051Z,8.40
2022-09-26T06:54:48.490Z,9.43
2022-09-26T06:57:15.504Z,8.25
2022-09-26T06:59:42.592Z,7.88
2022-09-26T07:02:19.360Z,8.52
2022-09-26T07:05:15.637Z,8.82
2022-09-26T07:07:50.987Z,12.65
2022-09-26T07:10:30.600Z,8.57
2022-09-26T07:13:07.933Z,9.10
2022-09-26T07:15:36.244Z,10.60
2022-09-26T07:18:32.082Z,7.65
2022-09-26T07:21:15.845Z,8.40
2022-09-26T07:24:01.531Z,7.90
2022-09-26T07:26:28.513Z,6.68
2022-09-26T07:28:55.928Z,6.15
2022-09-26T07:31:25.192Z,6.65
2022-09-26T07:34:17.966Z,7.15
2022-09-26T07:36:47.613Z,6.25
2022-09-26T07:39:15.199Z,8.52
2022-09-26T07:41:46.759Z,7.30
2022-09-26T07:47:20.541Z,6.65
2022-09-26T07:50:06.129Z,6.13
2022-09-26T07:52:51.412Z,10.13
2022-09-26T07:55:28.236Z,6.55
2022-09-26T07:58:18.541Z,7.32
2022-09-26T08:00:52.591Z,6.72
2022-09-26T08:03:49.655Z,6.88
2022-09-26T08:06:31.540Z,5.38
2022-09-26T08:08:58.349Z,7.28
2022-09-26T08:11:43.883Z,5.93
2022-09-26T08:14:42.718Z,6.93
2022-09-26T08:17:32.573Z,6.60
2022-09-26T08:20:03.388Z,7.45
2022-09-26T08:22:30.261Z,7.15
2022-09-26T08:24:59.107Z,5.65
2022-09-26T08:27:45.094Z,7.47
2022-09-26T08:30:12.728Z,5.15
2022-09-26T08:32:39.963Z,5.53
2022-09-26T08:35:07.639Z,5.13
2022-09-26T08:37:34.352Z,5.57
2022-09-26T08:40:32.441Z,5.50
2022-09-26T08:43:31.152Z,7.15
2022-09-26T08:46:56.160Z,5.10
2022-09-26T08:50:24.956Z,7.45
2022-09-26T08:53:00.902Z,6.63
2022-09-26T08:55:32.976Z,5.20
2022-09-26T08:58:15.393Z,5.18
2022-09-26T09:00:42.905Z,5.82
2022-09-26T09:03:36.494Z,6.03
2022-09-26T09:06:11.376Z,8.07
2022-09-26T09:08:51.167Z,6.85
2022-09-26T09:11:41.654Z,6.45
2022-09-26T09:14:43.768Z,5.88
2022-09-26T09:17:57.880Z,9.80
2022-09-26T09:21:00.965Z,5.38
2022-09-26T09:24:09.010Z,4.18
2022-09-26T09:29:56.769Z,4.93
2022-09-26T09:32:47.224Z,8.40
2022-09-26T09:35:24.721Z,4.05
2022-09-26T09:38:16.403Z,5.45
2022-09-26T09:41:10.184Z,4.93
2022-09-26T09:43:47.575Z,4.45
2022-09-26T09:46:29.611Z,2.80
2022-09-26T09:49:09.072Z,2.58
2022-09-26T09:51:56.122Z,6.07
2022-09-26T09:54:39.007Z,3.72
2022-09-26T09:57:18.108Z,3.28
2022-09-26T09:59:45.090Z,4.15
2022-09-26T10:02:30.002Z,4.75
2022-09-26T10:05:37.306Z,4.20
2022-09-26T10:08:11.239Z,2.22
2022-09-26T10:11:41.727Z,2.95
2022-09-26T10:14:34.916Z,3.63
2022-09-26T10:17:10.794Z,3.45
2022-09-26T10:19:47.867Z,4.13
2022-09-26T10:22:42.556Z,3.30
2022-09-26T10:25:21.442Z,2.80
2022-09-26T10:27:53.260Z,3.50
2022-09-26T10:30:31.964Z,3.70
2022-09-26T10:33:24.827Z,3.75
2022-09-26T10:36:07.314Z,4.32
2022-09-26T10:38:55.302Z,4.80
2022-09-26T10:41:25.096Z,4.25
2022-09-26T10:43:56.377Z,3.53
2022-09-26T10:46:46.771Z,2.70
2022-09-26T10:49:51.366Z,4.32
2022-09-26T10:53:01.796Z,3.30
2022-09-26T10:55:39.601Z,2.67
2022-09-26T10:58:14.253Z,2.83
2022-09-26T11:00:45.065Z,2.75
2022-09-26T11:03:41.517Z,3.15
2022-09-26T11:06:35.760Z,4.28
2022-09-26T11:09:11.931Z,3.10
2022-09-26T11:11:59.083Z,4.07
2022-09-26T11:17:03.344Z,3.20
2022-09-26T11:19:57.609Z,3.03
2022-09-26T11:22:43.463Z,4.47
2022-09-26T11:25:28.389Z,2.60
2022-09-26T11:28:07.157Z,2.50
2022-09-26T11:33:47.277Z,3.25
2022-09-26T11:36:48.830Z,5.38
2022-09-26T11:39:18.608Z,2.75
2022-09-26T11:41:54.616Z,2.95
2022-09-26T11:44:27.270Z,3.45
2022-09-26T11:47:49.914Z,2.97
2022-09-26T11:50:26.341Z,2.58
2022-09-26T11:53:52.786Z,2.92
2022-09-26T11:56:34.067Z,4.63
2022-09-26T11:59:22.415Z,3.38
2022-09-26T12:02:15.685Z,2.45
2022-09-26T12:05:01.041Z,3.75
2022-09-26T12:07:33.572Z,3.25
2022-09-26T12:10:25.206Z,3.85
2022-09-26T12:13:19.468Z,4.03
2022-09-26T12:15:56.372Z,2.90
2022-09-26T12:18:36.175Z,2.80
2022-09-26T12:21:21.125Z,2.97
2022-09-26T12:23:54.973Z,2.80
2022-09-26T12:26:49.667Z,3.92
2022-09-26T12:29:51.764Z,3.83
2022-09-26T12:32:41.831Z,2.07
2022-09-26T12:35:20.792Z,4.95
2022-09-26T12:37:58.482Z,3.30
2022-09-26T12:40:25.333Z,3.92
2022-09-26T12:43:16.962Z,3.60
2022-09-26T12:45:55.587Z,2.53
2022-09-26T12:48:54.838Z,4.07
2022-09-26T12:51:47.271Z,3.53
2022-09-26T12:54:37.110Z,5.05
2022-09-26T12:57:13.305Z,2.90
2022-09-26T13:00:09.484Z,3.17
2022-09-26T13:02:55.847Z,4.45
2022-09-26T13:05:47.292Z,4.82
2022-09-26T13:08:37.700Z,3.10
2022-09-26T13:11:10.565Z,3.30
2022-09-26T13:13:46.999Z,4.13
2022-09-26T13:16:23.838Z,4.53
2022-09-26T13:18:57.693Z,3.55
2022-09-26T13:21:54.636Z,3.70
2022-09-26T13:24:31.921Z,4.40
2022-09-26T13:27:17.735Z,3.13
2022-09-26T13:29:50.914Z,3.80
2022-09-26T13:32:52.342Z,4.07
2022-09-26T13:35:27.828Z,3.83
2022-09-26T13:38:14.380Z,4.55
2022-09-26T13:41:13.492Z,4.00
2022-09-26T13:44:06.404Z,3.20
2022-09-26T13:49:57.325Z,3.80
2022-09-26T13:52:52.929Z,3.88
2022-09-26T13:55:21.822Z,4.53
2022-09-26T13:58:03.792Z,3.75
2022-09-26T14:00:30.538Z,5.17
2022-09-26T14:03:19.289Z,4.55
2022-09-26T14:05:52.118Z,3.88
2022-09-26T14:11:19.881Z,5.60
2022-09-26T14:13:47.911Z,3.78
2022-09-26T14:16:35.294Z,3.80
2022-09-26T14:19:11.325Z,4.10
2022-09-26T14:22:00.620Z,5.88
2022-09-26T14:24:44.985Z,5.40
2022-09-26T14:27:11.695Z,5.40
2022-09-26T14:29:38.348Z,5.30
2022-09-26T14:32:05.754Z,6.30
2022-09-26T14:34:39.592Z,7.68
2022-09-26T14:37:25.498Z,5.63
2022-09-26T14:40:10.414Z,6.05
2022-09-26T14:42:49.070Z,5.13
2022-09-26T14:45:30.788Z,5.45
2022-09-26T14:48:17.158Z,4.47
2022-09-26T14:50:58.767Z,6.53
2022-09-26T14:53:54.793Z,3.85
2022-09-26T14:56:27.616Z,4.97
2022-09-26T14:59:13.668Z,5.00
2022-09-26T15:01:41.590Z,6.00
2022-09-26T15:04:29.948Z,5.80
2022-09-26T15:07:16.225Z,6.63
2022-09-26T15:10:18.871Z,4.90
2022-09-26T15:13:17.689Z,8.27
2022-09-26T15:16:09.874Z,9.63
2022-09-26T15:18:52.663Z,9.93
2022-09-26T15:21:38.519Z,13.20
2022-09-26T15:24:27.321Z,14.00
2022-09-26T15:26:56.923Z,10.70
2022-09-26T15:29:24.308Z,8.75
2022-09-26T15:31:51.937Z,8.07
2022-09-26T15:34:24.283Z,7.65
2022-09-26T15:36:56.028Z,10.05
2022-09-26T15:39:42.024Z,8.75
2022-09-26T15:42:33.545Z,10.75
2022-09-26T15:45:01.898Z,12.18
2022-09-26T15:47:31.896Z,11.13
2022-09-26T15:50:13.059Z,22.92
2022-09-26T15:52:43.552Z,30.27
2022-09-26T15:55:20.230Z,16.00
2022-09-26T15:57:51.814Z,12.07
2022-09-26T16:00:18.989Z,15.45
2022-09-26T16:02:46.942Z,10.82
2022-09-26T16:05:14.644Z,11.90
2022-09-26T16:07:48.921Z,22.75
2022-09-26T16:10:30.354Z,14.45
2022-09-26T16:12:59.297Z,20.90
2022-09-26T16:15:30.924Z,40.08
2022-09-26T16:17:58.837Z,45.50
2022-09-26T16:20:31.193Z,24.85
2022-09-26T16:23:04.333Z,17.55
2022-09-26T16:25:47.965Z,20.70
2022-09-26T16:28:15.655Z,22.33
2022-09-26T16:30:46.603Z,35.72
2022-09-26T16:33:26.962Z,32.53
2022-09-26T16:35:53.967Z,17.98
2022-09-26T16:38:29.169Z,14.68
2022-09-26T16:41:27.399Z,16.08
2022-09-26T16:44:24.381Z,20.98
2022-09-26T16:46:55.276Z,24.77
2022-09-26T16:49:45.822Z,18.92
2022-09-26T16:52:20.597Z,21.30
2022-09-26T16:54:49.080Z,23.13
2022-09-26T16:57:22.908Z,22.98
2022-09-26T16:59:51.665Z,26.77
2022-09-26T17:02:18.895Z,24.13
2022-09-26T17:04:47.540Z,25.48
2022-09-26T17:07:15.749Z,28.13
2022-09-26T17:09:44.153Z,30.98
2022-09-26T17:12:16.826Z,30.92
2022-09-26T17:17:22.157Z,29.55
2022-09-26T17:19:55.506Z,25.20
2022-09-26T17:22:24.833Z,23.50
2022-09-26T17:24:52.401Z,25.40
2022-09-26T17:27:30.695Z,25.17
2022-09-26T17:30:08.083Z,26.60
2022-09-26T17:32:38.283Z,24.67
2022-09-26T17:35:14.440Z,23.38
2022-09-26T17:37:41.384Z,23.42
2022-09-26T17:40:20.889Z,22.77
2022-09-26T17:42:47.926Z,26.33
2022-09-26T17:45:14.921Z,24.33
2022-09-26T17:47:41.851Z,23.65
2022-09-26T17:50:18.469Z,20.73
2022-09-26T17:52:46.992Z,25.60
2022-09-26T17:55:14.243Z,27.75
2022-09-26T17:57:42.083Z,28.67
2022-09-26T18:00:14.062Z,27.67
2022-09-26T18:02:47.493Z,25.67
2022-09-26T18:05:21.773Z,28.70
2022-09-26T18:07:52.603Z,30.65
2022-09-26T18:10:30.691Z,33.83
2022-09-26T18:13:12.758Z,29.25
2022-09-26T18:15:41.532Z,32.35
2022-09-26T18:18:32.529Z,47.97
2022-09-26T18:21:04.172Z,65.18
2022-09-26T18:23:44.222Z,89.65
2022-09-26T18:26:31.492Z,96.20
2022-09-26T18:29:02.584Z,76.35
2022-09-26T18:31:31.814Z,43.92
2022-09-26T18:34:00.063Z,43.67
2022-09-26T18:36:28.107Z,44.47
2022-09-26T18:38:55.206Z,45.25
2022-09-26T18:41:25.116Z,38.50
2022-09-26T18:43:54.399Z,34.05
2022-09-26T18:46:23.667Z,29.15
2022-09-26T18:48:58.429Z,34.83
2022-09-26T18:51:28.749Z,34.95
2022-09-26T18:53:55.776Z,34.92
2022-09-26T18:56:41.296Z,30.63
2022-09-26T18:59:10.383Z,30.67
2022-09-26T19:01:41.697Z,32.95
2022-09-26T19:04:19.702Z,32.13
2022-09-26T19:06:49.574Z,31.35
2022-09-26T19:09:20.017Z,35.00
2022-09-26T19:11:48.053Z,30.15
2022-09-26T19:14:18.296Z,30.20
2022-09-26T19:16:47.140Z,33.90
2022-09-26T19:19:15.056Z,27.00
2022-09-26T19:21:42.082Z,37.65
2022-09-26T19:24:22.791Z,35.97
2022-09-26T19:27:03.622Z,27.85
2022-09-26T19:29:38.776Z,26.75
2022-09-26T19:34:34.041Z,25.45
2022-09-26T19:37:03.225Z,26.38
2022-09-26T19:39:30.312Z,24.20
2022-09-26T19:41:57.637Z,25.30
2022-09-26T19:44:24.623Z,23.08
2022-09-26T19:46:51.638Z,23.27
2022-09-26T19:49:19.975Z,30.92
2022-09-26T19:51:47.297Z,22.10
2022-09-26T19:54:17.786Z,22.17
2022-09-26T19:56:45.823Z,22.08
2022-09-26T19:59:14.263Z,20.85
2022-09-26T20:01:43.241Z,23.83
2022-09-26T20:04:14.141Z,20.45
2022-09-26T20:06:43.810Z,22.27
2022-09-26T20:09:19.318Z,22.67
2022-09-26T20:11:46.675Z,21.33
2022-09-26T20:14:26.124Z,17.95
2022-09-26T20:16:56.213Z,19.00
2022-09-26T20:19:33.268Z,20.88
2022-09-26T20:22:03.003Z,21.20
2022-09-26T20:24:32.112Z,17.33
2022-09-26T20:27:01.721Z,18.58
2022-09-26T20:29:29.618Z,19.58
2022-09-26T20:31:56.323Z,17.50
2022-09-26T20:34:23.097Z,17.10
2022-09-26T20:36:51.593Z,14.68
2022-09-26T20:39:25.289Z,16.10
2022-09-26T20:41:52.673Z,17.92
2022-09-26T20:44:33.619Z,15.40
2022-09-26T20:47:04.555Z,20.08
2022-09-26T20:49:37.782Z,16.13
2022-09-26T20:52:08.790Z,18.98
2022-09-26T20:54:36.316Z,14.75
2022-09-26T20:57:03.032Z,16.73
2022-09-26T20:59:29.896Z,18.58
2022-09-26T21:01:57.613Z,16.90
2022-09-26T21:04:32.741Z,17.73
2022-09-26T21:06:59.504Z,15.85
2022-09-26T21:09:26.206Z,16.77
2022-09-26T21:11:52.971Z,15.52
2022-09-26T21:14:19.615Z,14.27
2022-09-26T21:16:52.343Z,16.05
2022-09-26T21:21:58.256Z,15.90
2022-09-26T21:24:41.532Z,17.92
2022-09-26T21:27:12.883Z,16.40
2022-09-26T21:29:40.963Z,16.30
2022-09-26T21:32:16.963Z,15.80
2022-09-26T21:34:56.039Z,17.45
2022-09-26T21:37:22.784Z,17.48
2022-09-26T21:39:50.067Z,16.55
2022-09-26T21:42:16.823Z,13.50
2022-09-26T21:44:48.595Z,15.60
2022-09-26T21:47:15.532Z,15.25
2022-09-26T21:49:42.340Z,15.57
2022-09-26T21:52:40.588Z,19.63
2022-09-26T21:55:16.259Z,14.32
2022-09-26T21:57:47.020Z,14.43
2022-09-26T22:00:14.200Z,15.68
2022-09-26T22:02:41.899Z,14.60
2022-09-26T22:05:09.712Z,13.70
2022-09-26T22:07:36.772Z,16.90
2022-09-26T22:10:05.372Z,16.02
2022-09-26T22:12:32.827Z,15.00
2022-09-26T22:14:59.880Z,15.45
2022-09-26T22:17:27.174Z,16.23
2022-09-26T22:19:53.937Z,15.48
2022-09-26T22:22:21.611Z,16.15
2022-09-26T22:24:48.392Z,17.33
2022-09-26T22:27:15.204Z,16.40
2022-09-26T22:29:41.963Z,13.68
2022-09-26T22:32:08.991Z,14.32
2022-09-26T22:34:35.799Z,14.50
2022-09-26T22:37:02.582Z,12.25
2022-09-26T22:39:29.390Z,14.20
2022-09-26T22:41:56.206Z,12.30
2022-09-26T22:44:22.917Z,15.20
2022-09-26T22:46:49.656Z,15.00
2022-09-26T22:49:16.408Z,13.00
2022-09-26T22:51:43.091Z,15.90
2022-09-26T22:54:09.868Z,12.85
2022-09-26T22:56:36.575Z,13.63
2022-09-26T22:59:03.789Z,15.50
2022-09-26T23:01:30.563Z,12.77
2022-09-26T23:03:59.207Z,17.02
2022-09-26T23:06:26.462Z,14.30
2022-09-26T23:08:53.253Z,14.70
2022-09-26T23:11:20.486Z,14.07
2022-09-26T23:13:47.329Z,13.55
2022-09-26T23:16:20.568Z,14.18
2022-09-26T23:18:48.721Z,11.68
2022-09-26T23:21:17.954Z,11.75
2022-09-26T23:23:46.507Z,11.63
2022-09-26T23:26:31.565Z,12.00
2022-09-26T23:28:59.044Z,12.50
2022-09-26T23:31:27.784Z,11.75
2022-09-26T23:33:55.208Z,11.02
2022-09-26T23:36:22.242Z,11.23
2022-09-26T23:38:49.986Z,12.68
2022-09-26T23:41:16.882Z,10.18
2022-09-26T23:43:44.215Z,11.48
2022-09-26T23:46:11.130Z,11.95
2022-09-26T23:48:39.414Z,13.95
2022-09-26T23:51:06.186Z,13.00
2022-09-26T23:53:33.046Z,13.30
2022-09-26T23:56:11.420Z,11.77
2022-09-26T23:58:38.552Z,12.55
